sensor_id;sensor_type;location;lat;lon;timestamp;temperature;humidity
17172;DHT22;8701;50.150;8.756;2022-10-16T00:01:12;15.80;99.90
17172;DHT22;8701;50.150;8.756;2022-10-16T00:05:19;15.80;99.90
17172;DHT22;8701;50.150;8.756;2022-10-16T00:09:21;15.80;99.90
17172;DHT22;8701;50.150;8.756;2022-10-16T00:13:26;15.80;99.90
17172;DHT22;8701;50.150;8.756;2022-10-16T00:17:30;15.80;99.90
17172;DHT22;8701;50.150;8.756;2022-10-16T00:21:33;15.90;99.90
17172;DHT22;8701;50.150;8.756;2022-10-16T00:25:35;15.80;99.90
17172;DHT22;8701;50.150;8.756;2022-10-16T00:29:39;15.80;99.90
17172;DHT22;8701;50.150;8.756;2022-10-16T00:33:41;15.80;99.90
17172;DHT22;8701;50.150;8.756;2022-10-16T00:37:44;15.80;99.90
17172;DHT22;8701;50.150;8.756;2022-10-16T00:41:46;15.80;99.90
17172;DHT22;8701;50.150;8.756;2022-10-16T00:45:50;15.80;99.90
17172;DHT22;8701;50.150;8.756;2022-10-16T00:49:58;16.00;99.90
17172;DHT22;8701;50.150;8.756;2022-10-16T00:54:02;16.00;99.90
17172;DHT22;8701;50.150;8.756;2022-10-16T00:58:06;15.90;99.90
17172;DHT22;8701;50.150;8.756;2022-10-16T01:02:13;15.90;99.90
17172;DHT22;8701;50.150;8.756;2022-10-16T01:06:29;15.90;99.90
17172;DHT22;8701;50.150;8.756;2022-10-16T01:10:39;15.90;99.90
17172;DHT22;8701;50.150;8.756;2022-10-16T01:14:47;15.90;99.90
17172;DHT22;8701;50.150;8.756;2022-10-16T01:18:56;16.00;99.90
17172;DHT22;8701;50.150;8.756;2022-10-16T01:23:05;16.00;99.90
17172;DHT22;8701;50.150;8.756;2022-10-16T01:27:12;16.00;99.90
17172;DHT22;8701;50.150;8.756;2022-10-16T01:31:19;16.00;99.90
17172;DHT22;8701;50.150;8.756;2022-10-16T01:35:23;16.00;99.90
17172;DHT22;8701;50.150;8.756;2022-10-16T01:39:31;16.00;99.90
17172;DHT22;8701;50.150;8.756;2022-10-16T01:43:39;16.00;99.90
17172;DHT22;8701;50.150;8.756;2022-10-16T01:47:43;16.00;99.90
17172;DHT22;8701;50.150;8.756;2022-10-16T01:51:48;16.00;99.90
17172;DHT22;8701;50.150;8.756;2022-10-16T01:55:53;16.00;99.90
17172;DHT22;8701;50.150;8.756;2022-10-16T02:00:03;16.00;99.90
17172;DHT22;8701;50.150;8.756;2022-10-16T02:04:17;16.00;99.90
17172;DHT22;8701;50.150;8.756;2022-10-16T02:08:23;16.00;99.90
17172;DHT22;8701;50.150;8.756;2022-10-16T02:12:28;16.00;99.90
17172;DHT22;8701;50.150;8.756;2022-10-16T02:16:37;16.00;99.90
17172;DHT22;8701;50.150;8.756;2022-10-16T02:20:47;15.90;99.90
17172;DHT22;8701;50.150;8.756;2022-10-16T02:24:54;15.90;99.90
17172;DHT22;8701;50.150;8.756;2022-10-16T02:29:01;15.90;99.90
17172;DHT22;8701;50.150;8.756;2022-10-16T02:33:09;15.80;99.90
17172;DHT22;8701;50.150;8.756;2022-10-16T02:37:12;15.90;99.90
17172;DHT22;8701;50.150;8.756;2022-10-16T02:41:15;15.90;99.90
17172;DHT22;8701;50.150;8.756;2022-10-16T02:45:17;15.90;99.90
17172;DHT22;8701;50.150;8.756;2022-10-16T02:49:21;15.80;99.90
17172;DHT22;8701;50.150;8.756;2022-10-16T02:53:23;15.80;99.90
17172;DHT22;8701;50.150;8.756;2022-10-16T02:57:26;15.80;99.90
17172;DHT22;8701;50.150;8.756;2022-10-16T03:01:28;15.90;99.90
17172;DHT22;8701;50.150;8.756;2022-10-16T03:05:31;15.80;99.90
17172;DHT22;8701;50.150;8.756;2022-10-16T03:09:34;15.80;99.90
17172;DHT22;8701;50.150;8.756;2022-10-16T03:13:36;15.80;99.90
17172;DHT22;8701;50.150;8.756;2022-10-16T03:17:38;16.00;99.90
17172;DHT22;8701;50.150;8.756;2022-10-16T03:21:42;15.80;99.90
17172;DHT22;8701;50.150;8.756;2022-10-16T03:25:44;15.80;99.90
17172;DHT22;8701;50.150;8.756;2022-10-16T03:29:46;15.80;99.90
17172;DHT22;8701;50.150;8.756;2022-10-16T03:33:49;15.80;99.90
17172;DHT22;8701;50.150;8.756;2022-10-16T03:37:52;15.80;99.90
17172;DHT22;8701;50.150;8.756;2022-10-16T03:41:55;15.80;99.90
17172;DHT22;8701;50.150;8.756;2022-10-16T03:45:57;15.80;99.90
17172;DHT22;8701;50.150;8.756;2022-10-16T03:49:59;15.80;99.90
17172;DHT22;8701;50.150;8.756;2022-10-16T03:54:03;15.70;99.90
17172;DHT22;8701;50.150;8.756;2022-10-16T03:58:05;15.70;99.90
17172;DHT22;8701;50.150;8.756;2022-10-16T04:02:07;15.60;99.90
17172;DHT22;8701;50.150;8.756;2022-10-16T04:06:10;15.70;99.90
17172;DHT22;8701;50.150;8.756;2022-10-16T04:10:13;15.70;99.90
17172;DHT22;8701;50.150;8.756;2022-10-16T04:14:16;15.70;99.90
17172;DHT22;8701;50.150;8.756;2022-10-16T04:18:18;15.70;99.90
17172;DHT22;8701;50.150;8.756;2022-10-16T04:22:20;15.70;99.90
17172;DHT22;8701;50.150;8.756;2022-10-16T04:26:24;15.70;99.90
17172;DHT22;8701;50.150;8.756;2022-10-16T04:30:26;15.90;99.90
17172;DHT22;8701;50.150;8.756;2022-10-16T04:34:29;15.70;99.90
17172;DHT22;8701;50.150;8.756;2022-10-16T04:38:31;15.70;99.90
17172;DHT22;8701;50.150;8.756;2022-10-16T04:42:35;15.70;99.90
17172;DHT22;8701;50.150;8.756;2022-10-16T04:46:37;15.70;99.90
17172;DHT22;8701;50.150;8.756;2022-10-16T04:50:39;15.70;99.90
17172;DHT22;8701;50.150;8.756;2022-10-16T04:54:42;15.70;99.90
17172;DHT22;8701;50.150;8.756;2022-10-16T04:58:47;15.70;99.90
17172;DHT22;8701;50.150;8.756;2022-10-16T05:02:49;15.80;99.90
17172;DHT22;8701;50.150;8.756;2022-10-16T05:06:52;15.70;99.90
17172;DHT22;8701;50.150;8.756;2022-10-16T05:10:54;15.80;99.90
17172;DHT22;8701;50.150;8.756;2022-10-16T05:14:57;15.80;99.90
17172;DHT22;8701;50.150;8.756;2022-10-16T05:19:00;15.70;99.90
17172;DHT22;8701;50.150;8.756;2022-10-16T05:23:02;15.70;99.90
17172;DHT22;8701;50.150;8.756;2022-10-16T05:27:04;15.70;99.90
17172;DHT22;8701;50.150;8.756;2022-10-16T05:31:09;15.70;99.90
17172;DHT22;8701;50.150;8.756;2022-10-16T05:35:12;15.70;99.90
17172;DHT22;8701;50.150;8.756;2022-10-16T05:39:15;15.70;99.90
17172;DHT22;8701;50.150;8.756;2022-10-16T05:43:18;15.70;99.90
17172;DHT22;8701;50.150;8.756;2022-10-16T05:47:22;15.70;99.90
17172;DHT22;8701;50.150;8.756;2022-10-16T05:51:24;15.70;99.90
17172;DHT22;8701;50.150;8.756;2022-10-16T05:55:26;15.60;99.90
17172;DHT22;8701;50.150;8.756;2022-10-16T05:59:28;15.70;99.90
17172;DHT22;8701;50.150;8.756;2022-10-16T06:03:32;15.70;99.90
17172;DHT22;8701;50.150;8.756;2022-10-16T06:07:35;15.70;99.90
17172;DHT22;8701;50.150;8.756;2022-10-16T06:11:37;15.70;99.90
17172;DHT22;8701;50.150;8.756;2022-10-16T06:15:40;15.60;99.90
17172;DHT22;8701;50.150;8.756;2022-10-16T06:19:45;15.70;99.90
17172;DHT22;8701;50.150;8.756;2022-10-16T06:23:48;15.60;99.90
17172;DHT22;8701;50.150;8.756;2022-10-16T06:27:50;15.70;99.90
17172;DHT22;8701;50.150;8.756;2022-10-16T06:31:52;15.80;99.90
17172;DHT22;8701;50.150;8.756;2022-10-16T06:36:01;15.60;99.90
17172;DHT22;8701;50.150;8.756;2022-10-16T06:40:04;15.80;99.90
17172;DHT22;8701;50.150;8.756;2022-10-16T06:44:09;15.80;99.90
17172;DHT22;8701;50.150;8.756;2022-10-16T06:48:11;15.80;99.90
17172;DHT22;8701;50.150;8.756;2022-10-16T06:52:15;15.80;99.90
17172;DHT22;8701;50.150;8.756;2022-10-16T06:56:19;15.70;99.90
17172;DHT22;8701;50.150;8.756;2022-10-16T07:00:22;15.90;99.90
17172;DHT22;8701;50.150;8.756;2022-10-16T07:04:25;15.90;99.90
17172;DHT22;8701;50.150;8.756;2022-10-16T07:08:30;16.00;99.90
17172;DHT22;8701;50.150;8.756;2022-10-16T07:12:33;16.00;99.90
17172;DHT22;8701;50.150;8.756;2022-10-16T07:16:35;16.10;99.90
17172;DHT22;8701;50.150;8.756;2022-10-16T07:20:39;16.10;99.90
17172;DHT22;8701;50.150;8.756;2022-10-16T07:24:42;16.30;99.90
17172;DHT22;8701;50.150;8.756;2022-10-16T07:28:47;16.10;99.90
17172;DHT22;8701;50.150;8.756;2022-10-16T07:32:49;16.20;99.90
17172;DHT22;8701;50.150;8.756;2022-10-16T07:36:52;16.20;99.90
17172;DHT22;8701;50.150;8.756;2022-10-16T07:40:59;16.30;99.90
17172;DHT22;8701;50.150;8.756;2022-10-16T07:45:03;16.40;99.90
17172;DHT22;8701;50.150;8.756;2022-10-16T07:49:05;16.30;99.90
17172;DHT22;8701;50.150;8.756;2022-10-16T07:53:08;16.30;99.90
17172;DHT22;8701;50.150;8.756;2022-10-16T07:57:12;16.40;99.90
17172;DHT22;8701;50.150;8.756;2022-10-16T08:01:20;16.30;99.90
17172;DHT22;8701;50.150;8.756;2022-10-16T08:05:22;16.40;99.90
17172;DHT22;8701;50.150;8.756;2022-10-16T08:09:24;16.40;99.90
17172;DHT22;8701;50.150;8.756;2022-10-16T08:13:28;16.50;99.90
17172;DHT22;8701;50.150;8.756;2022-10-16T08:17:30;16.40;99.90
17172;DHT22;8701;50.150;8.756;2022-10-16T08:21:32;16.50;99.90
17172;DHT22;8701;50.150;8.756;2022-10-16T08:25:35;16.50;99.90
17172;DHT22;8701;50.150;8.756;2022-10-16T08:29:39;16.40;99.90
17172;DHT22;8701;50.150;8.756;2022-10-16T08:33:43;16.50;99.90
17172;DHT22;8701;50.150;8.756;2022-10-16T08:37:47;16.50;99.90
17172;DHT22;8701;50.150;8.756;2022-10-16T08:42:05;16.70;99.90
17172;DHT22;8701;50.150;8.756;2022-10-16T08:46:30;16.50;99.90
17172;DHT22;8701;50.150;8.756;2022-10-16T08:50:38;16.50;99.90
17172;DHT22;8701;50.150;8.756;2022-10-16T08:54:44;16.50;99.90
17172;DHT22;8701;50.150;8.756;2022-10-16T08:58:48;16.50;99.90
17172;DHT22;8701;50.150;8.756;2022-10-16T09:02:59;16.50;99.90
17172;DHT22;8701;50.150;8.756;2022-10-16T09:07:09;16.50;99.90
17172;DHT22;8701;50.150;8.756;2022-10-16T09:11:29;16.50;99.90
17172;DHT22;8701;50.150;8.756;2022-10-16T09:15:35;16.50;99.90
17172;DHT22;8701;50.150;8.756;2022-10-16T09:19:44;16.50;99.90
17172;DHT22;8701;50.150;8.756;2022-10-16T09:23:48;16.40;99.90
17172;DHT22;8701;50.150;8.756;2022-10-16T09:27:53;16.50;99.90
17172;DHT22;8701;50.150;8.756;2022-10-16T09:31:57;16.50;99.90
17172;DHT22;8701;50.150;8.756;2022-10-16T09:36:11;16.50;99.90
17172;DHT22;8701;50.150;8.756;2022-10-16T09:40:25;16.60;99.90
17172;DHT22;8701;50.150;8.756;2022-10-16T09:44:29;16.50;99.90
17172;DHT22;8701;50.150;8.756;2022-10-16T09:48:36;16.50;99.90
17172;DHT22;8701;50.150;8.756;2022-10-16T09:52:40;16.50;99.90
17172;DHT22;8701;50.150;8.756;2022-10-16T09:56:43;16.30;99.90
17172;DHT22;8701;50.150;8.756;2022-10-16T10:00:50;16.50;99.90
17172;DHT22;8701;50.150;8.756;2022-10-16T10:04:54;16.40;99.90
17172;DHT22;8701;50.150;8.756;2022-10-16T10:09:05;16.50;99.90
17172;DHT22;8701;50.150;8.756;2022-10-16T10:13:17;16.60;99.90
17172;DHT22;8701;50.150;8.756;2022-10-16T10:17:23;16.60;99.90
17172;DHT22;8701;50.150;8.756;2022-10-16T10:21:25;16.70;99.90
17172;DHT22;8701;50.150;8.756;2022-10-16T10:25:42;16.80;99.90
17172;DHT22;8701;50.150;8.756;2022-10-16T10:29:53;17.20;99.90
17172;DHT22;8701;50.150;8.756;2022-10-16T10:34:07;17.70;99.90
17172;DHT22;8701;50.150;8.756;2022-10-16T10:38:22;17.90;99.90
17172;DHT22;8701;50.150;8.756;2022-10-16T10:42:33;18.20;99.90
17172;DHT22;8701;50.150;8.756;2022-10-16T10:46:41;18.40;99.90
17172;DHT22;8701;50.150;8.756;2022-10-16T10:50:48;18.60;99.90
17172;DHT22;8701;50.150;8.756;2022-10-16T10:54:56;18.60;99.90
17172;DHT22;8701;50.150;8.756;2022-10-16T10:59:22;18.60;99.90
17172;DHT22;8701;50.150;8.756;2022-10-16T11:03:42;18.90;99.90
17172;DHT22;8701;50.150;8.756;2022-10-16T11:07:50;18.90;99.90
17172;DHT22;8701;50.150;8.756;2022-10-16T11:11:57;19.10;99.90
17172;DHT22;8701;50.150;8.756;2022-10-16T11:16:11;19.70;99.90
17172;DHT22;8701;50.150;8.756;2022-10-16T11:20:18;21.00;99.90
17172;DHT22;8701;50.150;8.756;2022-10-16T11:24:23;22.10;99.90
17172;DHT22;8701;50.150;8.756;2022-10-16T11:28:33;23.00;99.90
17172;DHT22;8701;50.150;8.756;2022-10-16T11:32:49;23.40;99.90
17172;DHT22;8701;50.150;8.756;2022-10-16T11:36:57;23.40;99.90
17172;DHT22;8701;50.150;8.756;2022-10-16T11:41:06;23.70;99.90
17172;DHT22;8701;50.150;8.756;2022-10-16T11:45:27;23.50;99.90
17172;DHT22;8701;50.150;8.756;2022-10-16T11:49:36;24.10;99.90
17172;DHT22;8701;50.150;8.756;2022-10-16T11:53:45;25.60;99.90
17172;DHT22;8701;50.150;8.756;2022-10-16T11:57:50;26.70;99.90
17172;DHT22;8701;50.150;8.756;2022-10-16T12:02:15;27.40;99.90
17172;DHT22;8701;50.150;8.756;2022-10-16T12:06:30;27.60;99.90
17172;DHT22;8701;50.150;8.756;2022-10-16T12:10:33;28.10;99.90
17172;DHT22;8701;50.150;8.756;2022-10-16T12:14:39;28.60;99.90
17172;DHT22;8701;50.150;8.756;2022-10-16T12:18:43;29.00;99.90
17172;DHT22;8701;50.150;8.756;2022-10-16T12:22:51;28.90;99.90
17172;DHT22;8701;50.150;8.756;2022-10-16T12:26:55;28.50;99.90
17172;DHT22;8701;50.150;8.756;2022-10-16T12:31:02;29.00;99.90
17172;DHT22;8701;50.150;8.756;2022-10-16T12:35:16;29.10;99.90
17172;DHT22;8701;50.150;8.756;2022-10-16T12:39:22;29.40;99.90
17172;DHT22;8701;50.150;8.756;2022-10-16T12:43:35;29.00;99.90
17172;DHT22;8701;50.150;8.756;2022-10-16T12:47:48;29.30;99.90
17172;DHT22;8701;50.150;8.756;2022-10-16T12:51:50;29.80;99.90
17172;DHT22;8701;50.150;8.756;2022-10-16T12:56:03;30.30;99.90
17172;DHT22;8701;50.150;8.756;2022-10-16T13:00:13;29.20;99.90
17172;DHT22;8701;50.150;8.756;2022-10-16T13:04:47;28.20;99.90
17172;DHT22;8701;50.150;8.756;2022-10-16T13:13:51;26.40;99.90
17172;DHT22;8701;50.150;8.756;2022-10-16T13:18:02;25.70;99.90
17172;DHT22;8701;50.150;8.756;2022-10-16T13:22:16;25.40;99.90
17172;DHT22;8701;50.150;8.756;2022-10-16T13:26:26;25.10;99.90
17172;DHT22;8701;50.150;8.756;2022-10-16T13:30:37;24.90;99.90
17172;DHT22;8701;50.150;8.756;2022-10-16T13:34:45;24.60;99.90
17172;DHT22;8701;50.150;8.756;2022-10-16T13:38:47;24.30;99.90
17172;DHT22;8701;50.150;8.756;2022-10-16T13:42:50;24.00;99.90
17172;DHT22;8701;50.150;8.756;2022-10-16T13:47:00;23.90;99.90
17172;DHT22;8701;50.150;8.756;2022-10-16T13:51:04;23.80;99.90
17172;DHT22;8701;50.150;8.756;2022-10-16T13:55:10;23.80;99.90
17172;DHT22;8701;50.150;8.756;2022-10-16T13:59:23;23.70;99.90
17172;DHT22;8701;50.150;8.756;2022-10-16T14:03:27;23.40;99.90
17172;DHT22;8701;50.150;8.756;2022-10-16T14:07:32;23.30;99.90
17172;DHT22;8701;50.150;8.756;2022-10-16T14:11:42;23.10;99.90
17172;DHT22;8701;50.150;8.756;2022-10-16T14:15:47;22.80;99.90
17172;DHT22;8701;50.150;8.756;2022-10-16T14:19:54;22.90;99.90
17172;DHT22;8701;50.150;8.756;2022-10-16T14:23:57;22.60;99.90
17172;DHT22;8701;50.150;8.756;2022-10-16T14:28:02;22.60;99.90
17172;DHT22;8701;50.150;8.756;2022-10-16T14:32:20;22.50;99.90
17172;DHT22;8701;50.150;8.756;2022-10-16T14:36:26;22.40;99.90
17172;DHT22;8701;50.150;8.756;2022-10-16T14:40:30;22.30;99.90
17172;DHT22;8701;50.150;8.756;2022-10-16T14:44:34;22.20;99.90
17172;DHT22;8701;50.150;8.756;2022-10-16T14:48:36;22.10;99.90
17172;DHT22;8701;50.150;8.756;2022-10-16T14:52:43;22.30;99.90
17172;DHT22;8701;50.150;8.756;2022-10-16T14:56:48;22.10;99.90
17172;DHT22;8701;50.150;8.756;2022-10-16T15:00:52;22.10;99.90
17172;DHT22;8701;50.150;8.756;2022-10-16T15:04:55;21.90;99.90
17172;DHT22;8701;50.150;8.756;2022-10-16T15:08:59;21.90;99.90
17172;DHT22;8701;50.150;8.756;2022-10-16T15:13:01;21.80;99.90
17172;DHT22;8701;50.150;8.756;2022-10-16T15:17:04;21.70;99.90
17172;DHT22;8701;50.150;8.756;2022-10-16T15:21:06;21.70;99.90
17172;DHT22;8701;50.150;8.756;2022-10-16T15:25:26;21.60;99.90
17172;DHT22;8701;50.150;8.756;2022-10-16T15:29:29;21.60;99.90
17172;DHT22;8701;50.150;8.756;2022-10-16T15:33:32;21.50;99.90
17172;DHT22;8701;50.150;8.756;2022-10-16T15:37:35;21.30;99.90
17172;DHT22;8701;50.150;8.756;2022-10-16T15:41:39;21.40;99.90
17172;DHT22;8701;50.150;8.756;2022-10-16T15:45:42;21.30;99.90
17172;DHT22;8701;50.150;8.756;2022-10-16T15:49:45;21.20;99.90
17172;DHT22;8701;50.150;8.756;2022-10-16T15:53:47;21.20;99.90
17172;DHT22;8701;50.150;8.756;2022-10-16T15:57:53;21.10;99.90
17172;DHT22;8701;50.150;8.756;2022-10-16T16:01:55;21.00;99.90
17172;DHT22;8701;50.150;8.756;2022-10-16T16:05:57;20.90;99.90
17172;DHT22;8701;50.150;8.756;2022-10-16T16:10:00;21.10;99.90
17172;DHT22;8701;50.150;8.756;2022-10-16T16:14:03;20.70;99.90
17172;DHT22;8701;50.150;8.756;2022-10-16T16:18:06;20.40;99.90
17172;DHT22;8701;50.150;8.756;2022-10-16T16:22:10;20.50;99.90
17172;DHT22;8701;50.150;8.756;2022-10-16T16:26:15;20.50;99.90
17172;DHT22;8701;50.150;8.756;2022-10-16T16:30:19;20.40;99.90
17172;DHT22;8701;50.150;8.756;2022-10-16T16:34:21;20.30;99.90
17172;DHT22;8701;50.150;8.756;2022-10-16T16:38:23;20.20;99.90
17172;DHT22;8701;50.150;8.756;2022-10-16T16:42:26;20.20;99.90
17172;DHT22;8701;50.150;8.756;2022-10-16T16:46:30;20.00;99.90
17172;DHT22;8701;50.150;8.756;2022-10-16T16:50:35;20.00;99.90
17172;DHT22;8701;50.150;8.756;2022-10-16T16:54:37;19.90;99.90
17172;DHT22;8701;50.150;8.756;2022-10-16T16:58:39;19.80;99.90
17172;DHT22;8701;50.150;8.756;2022-10-16T17:02:48;19.80;99.90
17172;DHT22;8701;50.150;8.756;2022-10-16T17:06:50;19.70;99.90
17172;DHT22;8701;50.150;8.756;2022-10-16T17:10:54;19.60;99.90
17172;DHT22;8701;50.150;8.756;2022-10-16T17:14:57;19.50;99.90
17172;DHT22;8701;50.150;8.756;2022-10-16T17:19:02;19.40;99.90
17172;DHT22;8701;50.150;8.756;2022-10-16T17:23:06;19.40;99.90
17172;DHT22;8701;50.150;8.756;2022-10-16T17:27:10;19.40;99.90
17172;DHT22;8701;50.150;8.756;2022-10-16T17:31:15;19.40;99.90
17172;DHT22;8701;50.150;8.756;2022-10-16T17:35:19;19.10;99.90
17172;DHT22;8701;50.150;8.756;2022-10-16T17:39:21;19.20;99.90
17172;DHT22;8701;50.150;8.756;2022-10-16T17:43:23;19.20;99.90
17172;DHT22;8701;50.150;8.756;2022-10-16T17:47:26;19.10;99.90
17172;DHT22;8701;50.150;8.756;2022-10-16T17:51:30;19.00;99.90
17172;DHT22;8701;50.150;8.756;2022-10-16T17:55:37;19.00;99.90
17172;DHT22;8701;50.150;8.756;2022-10-16T17:59:39;19.00;99.90
17172;DHT22;8701;50.150;8.756;2022-10-16T18:03:41;18.90;99.90
17172;DHT22;8701;50.150;8.756;2022-10-16T18:07:45;18.70;99.90
17172;DHT22;8701;50.150;8.756;2022-10-16T18:11:48;18.60;99.90
17172;DHT22;8701;50.150;8.756;2022-10-16T18:15:59;18.60;99.90
17172;DHT22;8701;50.150;8.756;2022-10-16T18:20:02;18.50;99.90
17172;DHT22;8701;50.150;8.756;2022-10-16T18:24:06;18.40;99.90
17172;DHT22;8701;50.150;8.756;2022-10-16T18:28:09;18.30;99.90
17172;DHT22;8701;50.150;8.756;2022-10-16T18:32:14;18.20;99.90
17172;DHT22;8701;50.150;8.756;2022-10-16T18:36:19;18.20;99.90
17172;DHT22;8701;50.150;8.756;2022-10-16T18:40:23;17.90;99.90
17172;DHT22;8701;50.150;8.756;2022-10-16T18:44:26;18.00;99.90
17172;DHT22;8701;50.150;8.756;2022-10-16T18:48:31;17.90;99.90
17172;DHT22;8701;50.150;8.756;2022-10-16T18:52:33;17.80;99.90
17172;DHT22;8701;50.150;8.756;2022-10-16T18:56:38;17.80;99.90
17172;DHT22;8701;50.150;8.756;2022-10-16T19:00:40;17.70;99.90
17172;DHT22;8701;50.150;8.756;2022-10-16T19:04:44;17.60;99.90
17172;DHT22;8701;50.150;8.756;2022-10-16T19:08:50;17.60;99.90
17172;DHT22;8701;50.150;8.756;2022-10-16T19:12:55;17.60;99.90
17172;DHT22;8701;50.150;8.756;2022-10-16T19:16:58;17.50;99.90
17172;DHT22;8701;50.150;8.756;2022-10-16T19:21:00;17.50;99.90
17172;DHT22;8701;50.150;8.756;2022-10-16T19:25:04;17.50;99.90
17172;DHT22;8701;50.150;8.756;2022-10-16T19:29:07;17.40;99.90
17172;DHT22;8701;50.150;8.756;2022-10-16T19:33:10;17.30;99.90
17172;DHT22;8701;50.150;8.756;2022-10-16T19:37:13;17.30;99.90
17172;DHT22;8701;50.150;8.756;2022-10-16T19:41:16;17.30;99.90
17172;DHT22;8701;50.150;8.756;2022-10-16T19:45:21;17.30;99.90
17172;DHT22;8701;50.150;8.756;2022-10-16T19:49:23;17.20;99.90
17172;DHT22;8701;50.150;8.756;2022-10-16T19:53:26;17.20;99.90
17172;DHT22;8701;50.150;8.756;2022-10-16T19:57:32;17.10;99.90
17172;DHT22;8701;50.150;8.756;2022-10-16T20:01:36;17.10;99.90
17172;DHT22;8701;50.150;8.756;2022-10-16T20:05:48;17.10;99.90
17172;DHT22;8701;50.150;8.756;2022-10-16T20:09:58;17.00;99.90
17172;DHT22;8701;50.150;8.756;2022-10-16T20:14:02;17.00;99.90
17172;DHT22;8701;50.150;8.756;2022-10-16T20:18:06;17.00;99.90
17172;DHT22;8701;50.150;8.756;2022-10-16T20:22:09;16.90;99.90
17172;DHT22;8701;50.150;8.756;2022-10-16T20:26:11;16.80;99.90
17172;DHT22;8701;50.150;8.756;2022-10-16T20:30:14;16.80;99.90
17172;DHT22;8701;50.150;8.756;2022-10-16T20:34:18;16.90;99.90
17172;DHT22;8701;50.150;8.756;2022-10-16T20:38:21;16.90;99.90
17172;DHT22;8701;50.150;8.756;2022-10-16T20:42:25;16.80;99.90
17172;DHT22;8701;50.150;8.756;2022-10-16T20:46:28;16.80;99.90
17172;DHT22;8701;50.150;8.756;2022-10-16T20:50:31;16.80;99.90
17172;DHT22;8701;50.150;8.756;2022-10-16T20:54:34;16.80;99.90
17172;DHT22;8701;50.150;8.756;2022-10-16T20:58:36;16.70;99.90
17172;DHT22;8701;50.150;8.756;2022-10-16T21:02:39;16.70;99.90
17172;DHT22;8701;50.150;8.756;2022-10-16T21:06:42;16.70;99.90
17172;DHT22;8701;50.150;8.756;2022-10-16T21:10:46;16.60;99.90
17172;DHT22;8701;50.150;8.756;2022-10-16T21:14:48;16.80;99.90
17172;DHT22;8701;50.150;8.756;2022-10-16T21:18:51;16.60;99.90
17172;DHT22;8701;50.150;8.756;2022-10-16T21:22:55;16.60;99.90
17172;DHT22;8701;50.150;8.756;2022-10-16T21:26:57;16.70;99.90
17172;DHT22;8701;50.150;8.756;2022-10-16T21:31:09;16.50;99.90
17172;DHT22;8701;50.150;8.756;2022-10-16T21:35:12;16.50;99.90
17172;DHT22;8701;50.150;8.756;2022-10-16T21:39:20;16.40;99.90
17172;DHT22;8701;50.150;8.756;2022-10-16T21:43:22;16.40;99.90
17172;DHT22;8701;50.150;8.756;2022-10-16T21:47:25;16.40;99.90
17172;DHT22;8701;50.150;8.756;2022-10-16T21:51:29;16.40;99.90
17172;DHT22;8701;50.150;8.756;2022-10-16T21:55:36;16.30;99.90
17172;DHT22;8701;50.150;8.756;2022-10-16T21:59:38;16.30;99.90
17172;DHT22;8701;50.150;8.756;2022-10-16T22:03:40;16.30;99.90
17172;DHT22;8701;50.150;8.756;2022-10-16T22:07:44;16.40;99.90
17172;DHT22;8701;50.150;8.756;2022-10-16T22:11:49;16.20;99.90
17172;DHT22;8701;50.150;8.756;2022-10-16T22:15:51;16.20;99.90
17172;DHT22;8701;50.150;8.756;2022-10-16T22:19:56;16.20;99.90
17172;DHT22;8701;50.150;8.756;2022-10-16T22:23:58;16.10;99.90
17172;DHT22;8701;50.150;8.756;2022-10-16T22:28:03;16.10;99.90
17172;DHT22;8701;50.150;8.756;2022-10-16T22:32:05;16.00;99.90
17172;DHT22;8701;50.150;8.756;2022-10-16T22:36:10;16.00;99.90
17172;DHT22;8701;50.150;8.756;2022-10-16T22:40:13;16.00;99.90
17172;DHT22;8701;50.150;8.756;2022-10-16T22:44:16;16.00;99.90
17172;DHT22;8701;50.150;8.756;2022-10-16T22:48:18;15.90;99.90
17172;DHT22;8701;50.150;8.756;2022-10-16T22:52:21;15.90;99.90
17172;DHT22;8701;50.150;8.756;2022-10-16T22:56:24;15.90;99.90
17172;DHT22;8701;50.150;8.756;2022-10-16T23:00:28;15.80;99.90
17172;DHT22;8701;50.150;8.756;2022-10-16T23:04:31;15.80;99.90
17172;DHT22;8701;50.150;8.756;2022-10-16T23:08:33;15.80;99.90
17172;DHT22;8701;50.150;8.756;2022-10-16T23:12:35;15.70;99.90
17172;DHT22;8701;50.150;8.756;2022-10-16T23:16:39;15.70;99.90
17172;DHT22;8701;50.150;8.756;2022-10-16T23:20:41;15.70;99.90
17172;DHT22;8701;50.150;8.756;2022-10-16T23:24:44;15.70;99.90
17172;DHT22;8701;50.150;8.756;2022-10-16T23:28:46;15.60;99.90
17172;DHT22;8701;50.150;8.756;2022-10-16T23:32:50;15.60;99.90
17172;DHT22;8701;50.150;8.756;2022-10-16T23:36:52;15.50;99.90
17172;DHT22;8701;50.150;8.756;2022-10-16T23:40:54;15.50;99.90
17172;DHT22;8701;50.150;8.756;2022-10-16T23:44:57;15.50;99.90
17172;DHT22;8701;50.150;8.756;2022-10-16T23:49:00;15.40;99.90
17172;DHT22;8701;50.150;8.756;2022-10-16T23:53:03;15.30;99.90
17172;DHT22;8701;50.150;8.756;2022-10-16T23:57:05;15.40;99.90
